首页
METAR-TAF:

METAR-TAF

机场 :

錫永機場

锡永, 瑞士

纬度: 46-13N, 经度: 007-20E, 海拔: 482米

当前天气观测

该预报发布于41分钟前的03:20 UTC
风速1节,风向多变
温度 11°C
湿度 100%
气压 1020 hPa
能见度10公里或以上
散云层高于2700英尺
散云层高于8500英尺
多云层高于11000英尺

METAR: LSGS 240320Z AUTO VRB01KT 9999 SCT027 SCT085 BKN110 11/11 Q1020

时间: 06:01 (04:01 UTC)

预报

该预报发布于1小时和36分钟前的02:25 UTC
预报有效从24日的 03点(UTC)到 24日的 12点(UTC)
风速3节,风向多变
能见度10公里或以上
散云层高于4000英尺
散云层高于7000英尺

TAF: LSGS 240225Z 2403/2412 VRB03KT 9999 SCT040 SCT070

超过4000个机场的气象观测和天气预报(METAR&TAF报告)。

可查询的气象台以黄色和红色小点在地图上表示。

将鼠标移到小点上方,可查看气象台名称。

然后点击查看天气观测和预报。

如需切换地图:点击带黑十字的绿色按钮放大地图;点击带横线的绿色按钮缩小地图;或者点击绿色箭头查看邻近地区的地图。


METAR-TAF: